Terminal Aerodrome Forecast
Issued by NWS

Current Version | Previous Version | Graphics & Text | Print | Product List | Glossary On
Versions: 1 2 3 4 5 6 7 8 9 10 11 12 13 14 15 16 17 18 19 20
751
FTUS41 KILN 152329
TAFLUK
TAF
KLUK 152329Z 1600/1624 22006KT 3SM -SN BR SCT025 OVC050
      TEMPO 1600/1602 OVC025
     FM160200 27006KT P6SM VCSH OVC025
     FM160400 26006KT P6SM OVC025=

USA.gov is the U.S. government's official web portal to all federal, state and local government web resources and services.